Terminal Aerodrome Forecast
Issued by NWS Charleston, WV

Current Version | Previous Version | Text Only | Print | Product List | Glossary Off
Versions: 1 2 3 4 5 6 7 8 9 10 11 12 13 14 15 16 17 18 19 20 21 22

000
FTUS41 KRLX 230843 AAA
TAFHTS
TAF AMD
KHTS 230843Z 2309/2406 00000KT 1/4SM FG VV001
     FM231300 00000KT 2SM BR BKN002
     FM231400 04003KT P6SM FEW250=

USA.gov is the U.S. government's official web portal to all federal, state and local government web resources and services.